DAH2014 DAOO-LEIB
Flight info
| Callsign | DAH2014 |
|---|---|
| Flight time | 0h 42m |
| Altitude | 36000 |
| Route | SID54 BAHRI UA34 HAMRA N608 MITOS N851 RUXET |
| Aircraft | B738/M-SDE2E3FGHIRWXY/LB1 |
Departure
| Time | 2026-04-25 13:28 |
|---|---|
| Airport | Oran Es-Sénia (Ahmed Ben Bella) International Airport (DAOO) |
Arrival
| Time | 2026-04-25 14:11 |
|---|---|
| Airport | Ibiza Airport (LEIB) |
| Time | Latitude | Longitude | Altitude | Speed | Heading |
|---|---|---|---|---|---|
| 2026-04-25 13:08 | 35.61949 | -0.61111 | 309 ft | 0 kts | 146° |
| 2026-04-25 13:20 | 35.61956 | -0.61116 | 329 ft | 2 kts | 145° |
| 2026-04-25 13:20 | 35.61969 | -0.61128 | 307 ft | 2 kts | 144° |
| 2026-04-25 13:20 | 35.61982 | -0.61140 | 302 ft | 2 kts | 142° |
| 2026-04-25 13:21 | 35.61995 | -0.61153 | 309 ft | 2 kts | 136° |
| 2026-04-25 13:21 | 35.62006 | -0.61168 | 308 ft | 2 kts | 111° |
| 2026-04-25 13:21 | 35.62005 | -0.61186 | 308 ft | 1 kts | 56° |
| 2026-04-25 13:21 | 35.62003 | -0.61189 | 308 ft | 0 kts | 54° |
| 2026-04-25 13:23 | 35.62010 | -0.61178 | 308 ft | 7 kts | 54° |
| 2026-04-25 13:24 | 35.62046 | -0.61090 | 308 ft | 17 kts | 68° |
| 2026-04-25 13:24 | 35.62102 | -0.60989 | 309 ft | 10 kts | 359° |
| 2026-04-25 13:24 | 35.62178 | -0.60980 | 308 ft | 13 kts | 45° |
| 2026-04-25 13:24 | 35.62216 | -0.60885 | 309 ft | 12 kts | 68° |
| 2026-04-25 13:25 | 35.62249 | -0.60787 | 308 ft | 12 kts | 68° |
| 2026-04-25 13:25 | 35.62296 | -0.60650 | 309 ft | 23 kts | 67° |
| 2026-04-25 13:25 | 35.62355 | -0.60476 | 309 ft | 19 kts | 66° |
| 2026-04-25 13:25 | 35.62437 | -0.60365 | 309 ft | 18 kts | 22° |
| 2026-04-25 13:26 | 35.62556 | -0.60373 | 309 ft | 17 kts | 339° |
| 2026-04-25 13:26 | 35.62665 | -0.60430 | 309 ft | 17 kts | 337° |
| 2026-04-25 13:26 | 35.62770 | -0.60484 | 309 ft | 16 kts | 337° |
| 2026-04-25 13:26 | 35.62865 | -0.60543 | 309 ft | 14 kts | 315° |
| 2026-04-25 13:27 | 35.62880 | -0.60651 | 308 ft | 12 kts | 257° |
| 2026-04-25 13:27 | 35.62864 | -0.60705 | 308 ft | 0 kts | 247° |
| 2026-04-25 13:27 | 35.62857 | -0.60724 | 309 ft | 18 kts | 248° |
| 2026-04-25 13:27 | 35.62670 | -0.61274 | 310 ft | 119 kts | 247° |
| 2026-04-25 13:28 | 35.62248 | -0.62534 | 413 ft | 193 kts | 249° |
| 2026-04-25 13:28 | 35.62068 | -0.63068 | 623 ft | 206 kts | 249° |
| 2026-04-25 13:28 | 35.61221 | -0.65734 | 2105 ft | 226 kts | 262° |
| 2026-04-25 13:28 | 35.61286 | -0.67642 | 3176 ft | 228 kts | 285° |
| 2026-04-25 13:29 | 35.61774 | -0.69525 | 3754 ft | 240 kts | 288° |
| 2026-04-25 13:29 | 35.62393 | -0.71457 | 4415 ft | 246 kts | 302° |
| 2026-04-25 13:29 | 35.63535 | -0.73027 | 5176 ft | 248 kts | 315° |
| 2026-04-25 13:30 | 35.66319 | -0.75623 | 6574 ft | 260 kts | 341° |
| 2026-04-25 13:30 | 35.68131 | -0.75781 | 7267 ft | 265 kts | 12° |
| 2026-04-25 13:30 | 35.69843 | -0.74942 | 8017 ft | 268 kts | 29° |
| 2026-04-25 13:31 | 35.72800 | -0.72871 | 9074 ft | 289 kts | 31° |
| 2026-04-25 13:31 | 35.74586 | -0.71594 | 9581 ft | 302 kts | 31° |
| 2026-04-25 13:31 | 35.76418 | -0.70279 | 10366 ft | 306 kts | 31° |
| 2026-04-25 13:31 | 35.78326 | -0.68901 | 10604 ft | 330 kts | 31° |
| 2026-04-25 13:32 | 35.80385 | -0.67406 | 10818 ft | 354 kts | 31° |
| 2026-04-25 13:32 | 35.82559 | -0.65823 | 11211 ft | 368 kts | 31° |
| 2026-04-25 13:32 | 35.84779 | -0.64201 | 11889 ft | 373 kts | 31° |
| 2026-04-25 13:32 | 35.87023 | -0.62559 | 12674 ft | 376 kts | 31° |
| 2026-04-25 13:33 | 35.89245 | -0.60929 | 13424 ft | 379 kts | 31° |
| 2026-04-25 13:33 | 35.91538 | -0.59242 | 14173 ft | 383 kts | 31° |
| 2026-04-25 13:33 | 35.93553 | -0.57757 | 14788 ft | 387 kts | 31° |
| 2026-04-25 13:33 | 35.95100 | -0.56618 | 15289 ft | 389 kts | 31° |
| 2026-04-25 13:34 | 35.98227 | -0.54317 | 16265 ft | 394 kts | 31° |
| 2026-04-25 13:34 | 36.00715 | -0.52898 | 16931 ft | 399 kts | 15° |
| 2026-04-25 13:34 | 36.03439 | -0.52175 | 17663 ft | 402 kts | 12° |
| 2026-04-25 13:34 | 36.06192 | -0.51378 | 18341 ft | 406 kts | 15° |
| 2026-04-25 13:35 | 36.08874 | -0.50343 | 18908 ft | 411 kts | 20° |
| 2026-04-25 13:35 | 36.11551 | -0.49067 | 19494 ft | 414 kts | 23° |
| 2026-04-25 13:35 | 36.14201 | -0.47626 | 20082 ft | 417 kts | 25° |
| 2026-04-25 13:35 | 36.16838 | -0.46079 | 20653 ft | 421 kts | 27° |
| 2026-04-25 13:36 | 36.19480 | -0.44469 | 21219 ft | 425 kts | 27° |
| 2026-04-25 13:36 | 36.22128 | -0.42830 | 21762 ft | 428 kts | 28° |
| 2026-04-25 13:36 | 36.24805 | -0.41165 | 22303 ft | 432 kts | 28° |
| 2026-04-25 13:36 | 36.27504 | -0.39486 | 22836 ft | 435 kts | 28° |
| 2026-04-25 13:37 | 36.30224 | -0.37798 | 23359 ft | 439 kts | 28° |
| 2026-04-25 13:37 | 36.32966 | -0.36098 | 23822 ft | 443 kts | 28° |
| 2026-04-25 13:37 | 36.35737 | -0.34382 | 24285 ft | 445 kts | 28° |
| 2026-04-25 13:37 | 36.38511 | -0.32665 | 24779 ft | 446 kts | 28° |
| 2026-04-25 13:38 | 36.41296 | -0.30941 | 25246 ft | 448 kts | 28° |
| 2026-04-25 13:38 | 36.44095 | -0.29207 | 25688 ft | 450 kts | 28° |
| 2026-04-25 13:38 | 36.46910 | -0.27461 | 26104 ft | 452 kts | 28° |
| 2026-04-25 13:38 | 36.49704 | -0.25726 | 26508 ft | 454 kts | 28° |
| 2026-04-25 13:39 | 36.52535 | -0.23967 | 26937 ft | 455 kts | 28° |
| 2026-04-25 13:39 | 36.55377 | -0.22199 | 27386 ft | 456 kts | 28° |
| 2026-04-25 13:39 | 36.58229 | -0.20426 | 27879 ft | 458 kts | 30° |
| 2026-04-25 13:39 | 36.61050 | -0.18673 | 28309 ft | 460 kts | 29° |
| 2026-04-25 13:40 | 36.63921 | -0.16880 | 28643 ft | 462 kts | 29° |
| 2026-04-25 13:40 | 36.66818 | -0.15070 | 29067 ft | 462 kts | 28° |
| 2026-04-25 13:40 | 36.69689 | -0.13277 | 29646 ft | 459 kts | 28° |
| 2026-04-25 13:40 | 36.72539 | -0.11497 | 30254 ft | 455 kts | 28° |
| 2026-04-25 13:41 | 36.74407 | -0.10330 | 30560 ft | 453 kts | 30° |
| 2026-04-25 13:41 | 36.78121 | -0.08005 | 31061 ft | 450 kts | 30° |
| 2026-04-25 13:41 | 36.79713 | -0.07003 | 31042 ft | 453 kts | 29° |
| 2026-04-25 13:42 | 36.86410 | -0.03233 | 31053 ft | 455 kts | 18° |
| 2026-04-25 13:42 | 36.91457 | -0.02190 | 31051 ft | 460 kts | 5° |
| 2026-04-25 13:43 | 36.97346 | -0.02170 | 31155 ft | 459 kts | 2° |
| 2026-04-25 13:43 | 37.00534 | -0.02240 | 31418 ft | 457 kts | 359° |
| 2026-04-25 13:43 | 37.03681 | -0.02799 | 31848 ft | 459 kts | 347° |
| 2026-04-25 13:43 | 37.06666 | -0.04353 | 31657 ft | 474 kts | 332° |
| 2026-04-25 13:44 | 37.09586 | -0.06296 | 31073 ft | 473 kts | 345° |
| 2026-04-25 13:44 | 37.12743 | -0.06803 | 31290 ft | 450 kts | 8° |
| 2026-04-25 13:44 | 37.15779 | -0.05990 | 31514 ft | 443 kts | 21° |
| 2026-04-25 13:44 | 37.18646 | -0.04691 | 31746 ft | 444 kts | 22° |
| 2026-04-25 13:45 | 37.21598 | -0.03515 | 31973 ft | 448 kts | 18° |
| 2026-04-25 13:45 | 37.24661 | -0.02693 | 32188 ft | 452 kts | 12° |
| 2026-04-25 13:45 | 37.27796 | -0.02220 | 32402 ft | 455 kts | 7° |
| 2026-04-25 13:45 | 37.30970 | -0.02003 | 32644 ft | 457 kts | 4° |
| 2026-04-25 13:46 | 37.34150 | -0.01937 | 32941 ft | 456 kts | 3° |
| 2026-04-25 13:46 | 37.37284 | -0.01941 | 33369 ft | 451 kts | 2° |
| 2026-04-25 13:46 | 37.40455 | -0.01962 | 33718 ft | 450 kts | 2° |
| 2026-04-25 13:47 | 37.46770 | -0.01978 | 33594 ft | 458 kts | 3° |
| 2026-04-25 13:47 | 37.53102 | -0.01956 | 33593 ft | 450 kts | 2° |
| 2026-04-25 13:48 | 37.59368 | -0.01916 | 33595 ft | 450 kts | 3° |
| 2026-04-25 13:48 | 37.65635 | -0.01874 | 33603 ft | 450 kts | 3° |
| 2026-04-25 13:49 | 37.71943 | -0.01832 | 33603 ft | 458 kts | 2° |
| 2026-04-25 13:49 | 37.78399 | -0.01790 | 33612 ft | 468 kts | 2° |
| 2026-04-25 13:50 | 37.84882 | -0.01753 | 33303 ft | 458 kts | 2° |
| 2026-04-25 13:50 | 37.88035 | -0.01735 | 33023 ft | 447 kts | 2° |
| 2026-04-25 13:50 | 37.91149 | -0.01715 | 32763 ft | 443 kts | 2° |
| 2026-04-25 13:50 | 37.94206 | -0.01695 | 32515 ft | 442 kts | 2° |
| 2026-04-25 13:51 | 37.97281 | -0.01992 | 32166 ft | 446 kts | 344° |
| 2026-04-25 13:51 | 38.00154 | -0.03469 | 31918 ft | 447 kts | 335° |
| 2026-04-25 13:51 | 38.02905 | -0.05245 | 31585 ft | 449 kts | 336° |
| 2026-04-25 13:51 | 38.05832 | -0.06590 | 31245 ft | 447 kts | 349° |
| 2026-04-25 13:52 | 38.08893 | -0.07253 | 30894 ft | 446 kts | 356° |
| 2026-04-25 13:52 | 38.11961 | -0.07437 | 30480 ft | 437 kts | 5° |
| 2026-04-25 13:52 | 38.14956 | -0.07036 | 30087 ft | 429 kts | 11° |
| 2026-04-25 13:52 | 38.17899 | -0.06471 | 29577 ft | 433 kts | 11° |
| 2026-04-25 13:53 | 38.20912 | -0.05861 | 29041 ft | 439 kts | 11° |
| 2026-04-25 13:53 | 38.23939 | -0.05263 | 28513 ft | 439 kts | 11° |
| 2026-04-25 13:53 | 38.26948 | -0.04690 | 28001 ft | 436 kts | 11° |
| 2026-04-25 13:53 | 38.29932 | -0.04139 | 27485 ft | 432 kts | 11° |
| 2026-04-25 13:54 | 38.32909 | -0.03596 | 26941 ft | 429 kts | 10° |
| 2026-04-25 13:54 | 38.35817 | -0.03066 | 26443 ft | 425 kts | 10° |
| 2026-04-25 13:54 | 38.38765 | -0.02527 | 25946 ft | 420 kts | 11° |
| 2026-04-25 13:54 | 38.41559 | -0.01760 | 25439 ft | 412 kts | 25° |
| 2026-04-25 13:55 | 38.43915 | 0.00193 | 24979 ft | 400 kts | 47° |
| 2026-04-25 13:55 | 38.45622 | 0.02939 | 24556 ft | 392 kts | 61° |
| 2026-04-25 13:55 | 38.46740 | 0.06064 | 24124 ft | 386 kts | 72° |
| 2026-04-25 13:55 | 38.47588 | 0.09292 | 23698 ft | 383 kts | 73° |
| 2026-04-25 13:56 | 38.48397 | 0.12523 | 23186 ft | 381 kts | 74° |
| 2026-04-25 13:56 | 38.49196 | 0.15730 | 22674 ft | 378 kts | 73° |
| 2026-04-25 13:56 | 38.49999 | 0.18930 | 22178 ft | 376 kts | 73° |
| 2026-04-25 13:56 | 38.50802 | 0.22095 | 21680 ft | 374 kts | 73° |
| 2026-04-25 13:57 | 38.51609 | 0.25247 | 21124 ft | 374 kts | 73° |
| 2026-04-25 13:57 | 38.52147 | 0.27343 | 20762 ft | 373 kts | 73° |
| 2026-04-25 13:57 | 38.53230 | 0.31549 | 20025 ft | 371 kts | 73° |
| 2026-04-25 13:57 | 38.54034 | 0.34668 | 19514 ft | 369 kts | 73° |
| 2026-04-25 13:58 | 38.54836 | 0.37779 | 18998 ft | 367 kts | 73° |
| 2026-04-25 13:58 | 38.55629 | 0.40859 | 18498 ft | 365 kts | 73° |
| 2026-04-25 13:58 | 38.56419 | 0.43933 | 17922 ft | 363 kts | 73° |
| 2026-04-25 13:58 | 38.57208 | 0.47006 | 17340 ft | 361 kts | 73° |
| 2026-04-25 13:59 | 38.57989 | 0.50051 | 16773 ft | 359 kts | 73° |
| 2026-04-25 13:59 | 38.58754 | 0.53037 | 16234 ft | 357 kts | 73° |
| 2026-04-25 13:59 | 38.59525 | 0.56051 | 15683 ft | 355 kts | 73° |
| 2026-04-25 13:59 | 38.60291 | 0.59049 | 15141 ft | 353 kts | 73° |
| 2026-04-25 14:00 | 38.61051 | 0.62026 | 14623 ft | 351 kts | 73° |
| 2026-04-25 14:00 | 38.61806 | 0.64996 | 14105 ft | 349 kts | 73° |
| 2026-04-25 14:00 | 38.62556 | 0.67941 | 13547 ft | 346 kts | 74° |
| 2026-04-25 14:00 | 38.63289 | 0.70818 | 12964 ft | 334 kts | 74° |
| 2026-04-25 14:01 | 38.64001 | 0.73617 | 12401 ft | 327 kts | 74° |
| 2026-04-25 14:01 | 38.64693 | 0.76344 | 11841 ft | 318 kts | 74° |
| 2026-04-25 14:01 | 38.65369 | 0.79009 | 11287 ft | 311 kts | 73° |
| 2026-04-25 14:01 | 38.66026 | 0.81611 | 10749 ft | 304 kts | 73° |
| 2026-04-25 14:02 | 38.66672 | 0.84168 | 10220 ft | 299 kts | 73° |
| 2026-04-25 14:02 | 38.67307 | 0.86683 | 9671 ft | 294 kts | 73° |
| 2026-04-25 14:02 | 38.67931 | 0.89156 | 9103 ft | 290 kts | 73° |
| 2026-04-25 14:02 | 38.68131 | 0.89953 | 8911 ft | 289 kts | 74° |
| 2026-04-25 14:03 | 38.69170 | 0.94020 | 8096 ft | 279 kts | 69° |
| 2026-04-25 14:03 | 38.70291 | 0.95986 | 7808 ft | 270 kts | 52° |
| 2026-04-25 14:03 | 38.71368 | 0.97900 | 7459 ft | 260 kts | 62° |
| 2026-04-25 14:03 | 38.72077 | 0.99978 | 7132 ft | 250 kts | 76° |
| 2026-04-25 14:04 | 38.72692 | 1.02024 | 6824 ft | 244 kts | 62° |
| 2026-04-25 14:04 | 38.73552 | 1.03857 | 6466 ft | 235 kts | 63° |
| 2026-04-25 14:04 | 38.74307 | 1.05674 | 6047 ft | 228 kts | 65° |
| 2026-04-25 14:04 | 38.75027 | 1.07456 | 5594 ft | 223 kts | 65° |
| 2026-04-25 14:05 | 38.75727 | 1.09179 | 5113 ft | 220 kts | 64° |
| 2026-04-25 14:05 | 38.76437 | 1.10919 | 4530 ft | 220 kts | 64° |
| 2026-04-25 14:05 | 38.77145 | 1.12648 | 4014 ft | 217 kts | 64° |
| 2026-04-25 14:05 | 38.77818 | 1.14287 | 3728 ft | 197 kts | 64° |
| 2026-04-25 14:06 | 38.78428 | 1.15771 | 3470 ft | 179 kts | 64° |
| 2026-04-25 14:06 | 38.78979 | 1.17114 | 3224 ft | 163 kts | 64° |
| 2026-04-25 14:06 | 38.79493 | 1.18369 | 3040 ft | 158 kts | 63° |
| 2026-04-25 14:06 | 38.80002 | 1.19612 | 2815 ft | 157 kts | 63° |
| 2026-04-25 14:07 | 38.80505 | 1.20838 | 2627 ft | 157 kts | 63° |
| 2026-04-25 14:07 | 38.81008 | 1.22063 | 2409 ft | 153 kts | 63° |
| 2026-04-25 14:07 | 38.81503 | 1.23267 | 2207 ft | 154 kts | 64° |
| 2026-04-25 14:07 | 38.82004 | 1.24487 | 1994 ft | 153 kts | 63° |
| 2026-04-25 14:08 | 38.82497 | 1.25685 | 1791 ft | 152 kts | 65° |
| 2026-04-25 14:08 | 38.82989 | 1.26885 | 1589 ft | 153 kts | 63° |
| 2026-04-25 14:08 | 38.83480 | 1.28078 | 1368 ft | 146 kts | 64° |
| 2026-04-25 14:08 | 38.83925 | 1.29164 | 1266 ft | 129 kts | 63° |
| 2026-04-25 14:09 | 38.84349 | 1.30223 | 964 ft | 135 kts | 63° |
| 2026-04-25 14:09 | 38.84797 | 1.31223 | 802 ft | 127 kts | 63° |
| 2026-04-25 14:09 | 38.85210 | 1.32247 | 636 ft | 131 kts | 67° |
| 2026-04-25 14:09 | 38.85349 | 1.32596 | 597 ft | 131 kts | 65° |
| 2026-04-25 14:10 | 38.86059 | 1.34324 | 372 ft | 134 kts | 63° |
| 2026-04-25 14:10 | 38.86501 | 1.35409 | 161 ft | 136 kts | 63° |
| 2026-04-25 14:10 | 38.86929 | 1.36450 | 27 ft | 129 kts | 62° |
| 2026-04-25 14:10 | 38.87282 | 1.37308 | 30 ft | 87 kts | 62° |
| 2026-04-25 14:11 | 38.87506 | 1.37781 | 32 ft | 36 kts | 44° |
| 2026-04-25 14:11 | 38.87580 | 1.37857 | 32 ft | 4 kts | 33° |
| 2026-04-25 14:11 | 38.87608 | 1.37881 | 31 ft | 2 kts | 33° |
| 2026-04-25 14:11 | 38.87629 | 1.37897 | 32 ft | 5 kts | 31° |
| 2026-04-25 14:12 | 38.87668 | 1.37913 | 35 ft | 6 kts | 354° |
| 2026-04-25 14:12 | 38.87694 | 1.37876 | 40 ft | 7 kts | 279° |
| 2026-04-25 14:12 | 38.87666 | 1.37777 | 41 ft | 18 kts | 243° |
| 2026-04-25 14:12 | 38.87615 | 1.37658 | 42 ft | 6 kts | 241° |
| 2026-04-25 14:13 | 38.87594 | 1.37606 | 43 ft | 6 kts | 243° |
| 2026-04-25 14:13 | 38.87592 | 1.37601 | 43 ft | 0 kts | 243° |
| 2026-04-25 14:15 | 38.87586 | 1.37577 | 43 ft | 9 kts | 266° |
| 2026-04-25 14:15 | 38.87594 | 1.37554 | 44 ft | 9 kts | 310° |
| 2026-04-25 14:15 | 38.87689 | 1.37477 | 48 ft | 10 kts | 316° |
| 2026-04-25 14:15 | 38.87689 | 1.37399 | 49 ft | 10 kts | 244° |
| 2026-04-25 14:16 | 38.87658 | 1.37325 | 49 ft | 9 kts | 242° |
| 2026-04-25 14:16 | 38.87627 | 1.37251 | 48 ft | 10 kts | 242° |
| 2026-04-25 14:16 | 38.87594 | 1.37171 | 47 ft | 11 kts | 242° |
| 2026-04-25 14:16 | 38.87555 | 1.37076 | 46 ft | 13 kts | 242° |
| 2026-04-25 14:17 | 38.87510 | 1.36968 | 45 ft | 14 kts | 242° |
| 2026-04-25 14:17 | 38.87466 | 1.36862 | 43 ft | 14 kts | 242° |
| 2026-04-25 14:17 | 38.87429 | 1.36773 | 42 ft | 10 kts | 242° |
| 2026-04-25 14:17 | 38.87409 | 1.36704 | 41 ft | 6 kts | 288° |
| 2026-04-25 14:18 | 38.87431 | 1.36686 | 43 ft | 2 kts | 336° |
| 2026-04-25 14:18 | 38.87442 | 1.36679 | 43 ft | 2 kts | 338° |
| 2026-04-25 14:18 | 38.87451 | 1.36677 | 42 ft | 1 kts | 351° |
| 2026-04-25 14:18 | 38.87468 | 1.36677 | 45 ft | 3 kts | 5° |
| 2026-04-25 14:19 | 38.87472 | 1.36678 | 45 ft | 0 kts | 10° |